sensor_id;sensor_type;location;lat;lon;timestamp;pressure;altitude;pressure_sealevel;temperature;humidity
60437;BME280;46289;51.992;4.498;2024-03-29T00:01:46;98924.34;;;9.10;100.00
60437;BME280;46289;51.992;4.498;2024-03-29T00:03:50;98917.59;;;9.06;100.00
60437;BME280;46289;51.992;4.498;2024-03-29T00:05:52;98916.28;;;9.13;100.00
60437;BME280;46289;51.992;4.498;2024-03-29T00:07:56;98918.06;;;9.12;100.00
60437;BME280;46289;51.992;4.498;2024-03-29T00:09:57;98920.47;;;9.15;100.00
60437;BME280;46289;51.992;4.498;2024-03-29T00:11:58;98928.81;;;9.08;100.00
60437;BME280;46289;51.992;4.498;2024-03-29T00:13:59;98920.59;;;9.14;100.00
60437;BME280;46289;51.992;4.498;2024-03-29T00:16:00;98934.41;;;9.16;100.00
60437;BME280;46289;51.992;4.498;2024-03-29T00:18:02;98933.28;;;9.20;100.00
60437;BME280;46289;51.992;4.498;2024-03-29T00:20:05;98928.34;;;9.15;100.00
60437;BME280;46289;51.992;4.498;2024-03-29T00:22:07;98930.38;;;9.25;100.00
60437;BME280;46289;51.992;4.498;2024-03-29T00:24:10;98923.53;;;9.22;100.00
60437;BME280;46289;51.992;4.498;2024-03-29T00:26:12;98924.88;;;9.15;100.00
60437;BME280;46289;51.992;4.498;2024-03-29T00:28:13;98941.03;;;9.21;100.00
60437;BME280;46289;51.992;4.498;2024-03-29T00:30:15;98933.16;;;9.21;100.00
60437;BME280;46289;51.992;4.498;2024-03-29T00:32:16;98931.63;;;9.19;100.00
60437;BME280;46289;51.992;4.498;2024-03-29T00:34:18;98936.53;;;9.23;100.00
60437;BME280;46289;51.992;4.498;2024-03-29T00:36:19;98926.16;;;9.22;100.00
60437;BME280;46289;51.992;4.498;2024-03-29T00:38:20;98927.22;;;9.19;100.00
60437;BME280;46289;51.992;4.498;2024-03-29T00:40:24;98937.47;;;9.22;100.00
60437;BME280;46289;51.992;4.498;2024-03-29T00:42:25;98921.22;;;9.17;100.00
60437;BME280;46289;51.992;4.498;2024-03-29T00:44:26;98930.38;;;9.25;100.00
60437;BME280;46289;51.992;4.498;2024-03-29T00:46:28;98932.44;;;9.19;100.00
60437;BME280;46289;51.992;4.498;2024-03-29T00:48:29;98935.59;;;9.25;100.00
60437;BME280;46289;51.992;4.498;2024-03-29T00:50:30;98939.91;;;9.26;100.00
60437;BME280;46289;51.992;4.498;2024-03-29T00:52:37;98933.91;;;9.23;100.00
60437;BME280;46289;51.992;4.498;2024-03-29T00:54:38;98931.63;;;9.19;100.00
60437;BME280;46289;51.992;4.498;2024-03-29T00:56:42;98940.31;;;9.19;100.00
60437;BME280;46289;51.992;4.498;2024-03-29T00:58:44;98940.31;;;9.19;100.00
60437;BME280;46289;51.992;4.498;2024-03-29T01:00:45;98946.94;;;9.25;100.00
60437;BME280;46289;51.992;4.498;2024-03-29T01:02:46;98952.16;;;9.25;100.00
60437;BME280;46289;51.992;4.498;2024-03-29T01:04:47;98951.13;;;9.28;100.00
60437;BME280;46289;51.992;4.498;2024-03-29T01:06:49;98948.50;;;9.28;100.00
60437;BME280;46289;51.992;4.498;2024-03-29T01:08:50;98947.34;;;9.32;100.00
60437;BME280;46289;51.992;4.498;2024-03-29T01:10:51;98948.31;;;9.31;100.00
60437;BME280;46289;51.992;4.498;2024-03-29T01:12:55;98941.19;;;9.33;100.00
60437;BME280;46289;51.992;4.498;2024-03-29T01:14:56;98932.38;;;9.34;100.00
60437;BME280;46289;51.992;4.498;2024-03-29T01:16:58;98929.25;;;9.41;100.00
60437;BME280;46289;51.992;4.498;2024-03-29T01:18:59;98934.56;;;9.40;100.00
60437;BME280;46289;51.992;4.498;2024-03-29T01:21:00;98948.09;;;9.34;100.00
60437;BME280;46289;51.992;4.498;2024-03-29T01:23:01;98941.59;;;9.39;100.00
60437;BME280;46289;51.992;4.498;2024-03-29T01:25:03;98941.72;;;9.38;100.00
60437;BME280;46289;51.992;4.498;2024-03-29T01:27:04;98935.31;;;9.42;100.00
60437;BME280;46289;51.992;4.498;2024-03-29T01:29:08;98940.03;;;9.37;100.00
60437;BME280;46289;51.992;4.498;2024-03-29T01:31:10;98939.94;;;9.38;100.00
60437;BME280;46289;51.992;4.498;2024-03-29T01:33:12;98937.53;;;9.35;100.00
60437;BME280;46289;51.992;4.498;2024-03-29T01:35:13;98940.22;;;9.34;100.00
60437;BME280;46289;51.992;4.498;2024-03-29T01:37:16;98929.00;;;9.32;100.00
60437;BME280;46289;51.992;4.498;2024-03-29T01:39:17;98939.16;;;9.23;100.00
60437;BME280;46289;51.992;4.498;2024-03-29T01:41:19;98929.63;;;9.22;100.00
60437;BME280;46289;51.992;4.498;2024-03-29T01:43:20;98929.72;;;9.21;100.00
60437;BME280;46289;51.992;4.498;2024-03-29T01:45:24;98925.75;;;9.28;100.00
60437;BME280;46289;51.992;4.498;2024-03-29T01:47:25;98926.19;;;9.35;100.00
60437;BME280;46289;51.992;4.498;2024-03-29T01:49:27;98923.75;;;9.32;100.00
60437;BME280;46289;51.992;4.498;2024-03-29T01:51:28;98927.75;;;9.25;100.00
60437;BME280;46289;51.992;4.498;2024-03-29T01:53:30;98924.38;;;9.22;100.00
60437;BME280;46289;51.992;4.498;2024-03-29T01:55:32;98932.25;;;9.22;100.00
60437;BME280;46289;51.992;4.498;2024-03-29T01:57:33;98937.28;;;9.26;100.00
60437;BME280;46289;51.992;4.498;2024-03-29T01:59:35;98928.66;;;9.23;100.00
60437;BME280;46289;51.992;4.498;2024-03-29T02:01:40;98931.19;;;9.25;100.00
60437;BME280;46289;51.992;4.498;2024-03-29T02:03:41;98924.25;;;9.24;100.00
60437;BME280;46289;51.992;4.498;2024-03-29T02:05:43;98930.91;;;9.30;100.00
60437;BME280;46289;51.992;4.498;2024-03-29T02:07:44;98942.59;;;9.24;100.00
60437;BME280;46289;51.992;4.498;2024-03-29T02:09:46;98940.00;;;9.24;100.00
60437;BME280;46289;51.992;4.498;2024-03-29T02:11:47;98938.13;;;9.26;100.00
60437;BME280;46289;51.992;4.498;2024-03-29T02:13:48;98941.03;;;9.21;100.00
60437;BME280;46289;51.992;4.498;2024-03-29T02:15:50;98937.47;;;9.22;100.00
60437;BME280;46289;51.992;4.498;2024-03-29T02:17:54;98937.03;;;9.16;100.00
60437;BME280;46289;51.992;4.498;2024-03-29T02:19:55;98958.19;;;9.13;100.00
60437;BME280;46289;51.992;4.498;2024-03-29T02:21:58;98954.53;;;9.15;100.00
60437;BME280;46289;51.992;4.498;2024-03-29T02:24:05;98967.63;;;9.15;100.00
60437;BME280;46289;51.992;4.498;2024-03-29T02:26:07;98962.00;;;9.21;100.00
60437;BME280;46289;51.992;4.498;2024-03-29T02:28:10;98965.13;;;9.14;100.00
60437;BME280;46289;51.992;4.498;2024-03-29T02:30:12;98968.97;;;9.08;100.00
60437;BME280;46289;51.992;4.498;2024-03-29T02:32:14;98962.31;;;9.17;100.00
60437;BME280;46289;51.992;4.498;2024-03-29T02:34:15;98970.81;;;9.20;100.00
60437;BME280;46289;51.992;4.498;2024-03-29T02:36:16;98973.91;;;9.13;100.00
60437;BME280;46289;51.992;4.498;2024-03-29T02:38:17;98964.88;;;9.04;100.00
60437;BME280;46289;51.992;4.498;2024-03-29T02:40:21;98970.25;;;9.15;100.00
60437;BME280;46289;51.992;4.498;2024-03-29T02:42:25;98973.09;;;9.12;100.00
60437;BME280;46289;51.992;4.498;2024-03-29T02:44:26;98968.19;;;9.20;100.00
60437;BME280;46289;51.992;4.498;2024-03-29T02:46:27;98970.81;;;9.20;100.00
60437;BME280;46289;51.992;4.498;2024-03-29T02:48:28;98968.69;;;9.13;100.00
60437;BME280;46289;51.992;4.498;2024-03-29T02:50:30;98971.59;;;9.08;100.00
60437;BME280;46289;51.992;4.498;2024-03-29T02:52:31;98969.09;;;9.07;100.00
60437;BME280;46289;51.992;4.498;2024-03-29T02:54:33;98971.78;;;9.05;100.00
60437;BME280;46289;51.992;4.498;2024-03-29T02:56:37;98972.69;;;9.18;100.00
60437;BME280;46289;51.992;4.498;2024-03-29T02:58:38;98971.63;;;9.21;100.00
60437;BME280;46289;51.992;4.498;2024-03-29T03:00:39;98972.88;;;9.15;100.00
60437;BME280;46289;51.992;4.498;2024-03-29T03:02:40;98978.13;;;9.15;100.00
60437;BME280;46289;51.992;4.498;2024-03-29T03:04:41;98966.81;;;9.15;100.00
60437;BME280;46289;51.992;4.498;2024-03-29T03:06:43;98973.16;;;9.11;100.00
60437;BME280;46289;51.992;4.498;2024-03-29T03:08:44;98980.00;;;9.13;100.00
60437;BME280;46289;51.992;4.498;2024-03-29T03:11:00;98974.22;;;9.08;100.00
60437;BME280;46289;51.992;4.498;2024-03-29T03:13:04;98979.16;;;9.13;100.00
60437;BME280;46289;51.992;4.498;2024-03-29T03:15:06;98974.59;;;9.16;100.00
60437;BME280;46289;51.992;4.498;2024-03-29T03:17:07;98987.97;;;9.12;100.00
60437;BME280;46289;51.992;4.498;2024-03-29T03:19:08;98985.22;;;9.13;100.00
60437;BME280;46289;51.992;4.498;2024-03-29T03:21:10;98985.63;;;9.07;100.00
60437;BME280;46289;51.992;4.498;2024-03-29T03:23:11;98989.56;;;9.14;100.00
60437;BME280;46289;51.992;4.498;2024-03-29T03:25:12;98986.19;;;9.12;100.00
60437;BME280;46289;51.992;4.498;2024-03-29T03:27:13;98985.16;;;9.15;100.00
60437;BME280;46289;51.992;4.498;2024-03-29T03:29:17;98990.31;;;9.16;100.00
60437;BME280;46289;51.992;4.498;2024-03-29T03:31:18;98988.41;;;9.18;100.00
60437;BME280;46289;51.992;4.498;2024-03-29T03:33:20;98991.56;;;9.23;100.00
60437;BME280;46289;51.992;4.498;2024-03-29T03:35:21;98986.66;;;9.19;100.00
60437;BME280;46289;51.992;4.498;2024-03-29T03:37:22;98978.59;;;9.22;100.00
60437;BME280;46289;51.992;4.498;2024-03-29T03:39:23;98988.03;;;9.25;100.00
60437;BME280;46289;51.992;4.498;2024-03-29T03:41:24;98980.25;;;9.23;100.00
60437;BME280;46289;51.992;4.498;2024-03-29T03:43:25;98987.97;;;9.12;100.00
60437;BME280;46289;51.992;4.498;2024-03-29T03:45:33;98983.28;;;9.17;100.00
60437;BME280;46289;51.992;4.498;2024-03-29T03:47:35;98994.13;;;9.11;100.00
60437;BME280;46289;51.992;4.498;2024-03-29T03:49:36;98993.66;;;9.18;100.00
60437;BME280;46289;51.992;4.498;2024-03-29T03:51:37;98992.94;;;9.16;100.00
60437;BME280;46289;51.992;4.498;2024-03-29T03:53:38;98995.72;;;9.13;100.00
60437;BME280;46289;51.992;4.498;2024-03-29T03:55:39;99008.28;;;9.08;100.00
60437;BME280;46289;51.992;4.498;2024-03-29T03:57:40;99003.69;;;9.12;100.00
60437;BME280;46289;51.992;4.498;2024-03-29T03:59:41;99009.56;;;9.15;100.00
60437;BME280;46289;51.992;4.498;2024-03-29T04:01:45;99013.97;;;9.15;100.00
60437;BME280;46289;51.992;4.498;2024-03-29T04:03:46;99007.91;;;9.14;100.00
60437;BME280;46289;51.992;4.498;2024-03-29T04:05:48;99005.38;;;9.13;100.00
60437;BME280;46289;51.992;4.498;2024-03-29T04:07:49;98999.50;;;9.09;100.00
60437;BME280;46289;51.992;4.498;2024-03-29T04:09:50;99000.13;;;9.13;100.00
60437;BME280;46289;51.992;4.498;2024-03-29T04:11:51;99013.00;;;9.03;100.00
60437;BME280;46289;51.992;4.498;2024-03-29T04:13:53;99011.09;;;9.05;100.00
60437;BME280;46289;51.992;4.498;2024-03-29T04:16:01;99008.88;;;8.99;100.00
60437;BME280;46289;51.992;4.498;2024-03-29T04:18:05;99009.50;;;9.02;100.00
60437;BME280;46289;51.992;4.498;2024-03-29T04:20:07;99015.50;;;9.05;100.00
60437;BME280;46289;51.992;4.498;2024-03-29T04:22:09;99007.22;;;9.11;100.00
60437;BME280;46289;51.992;4.498;2024-03-29T04:24:10;98994.53;;;9.05;100.00
60437;BME280;46289;51.992;4.498;2024-03-29T04:26:11;99004.38;;;9.01;100.00
60437;BME280;46289;51.992;4.498;2024-03-29T04:28:12;99017.28;;;9.04;100.00
60437;BME280;46289;51.992;4.498;2024-03-29T04:30:14;99016.44;;;9.04;100.00
60437;BME280;46289;51.992;4.498;2024-03-29T04:32:15;99010.53;;;9.00;100.00
60437;BME280;46289;51.992;4.498;2024-03-29T04:34:18;99017.47;;;9.01;100.00
60437;BME280;46289;51.992;4.498;2024-03-29T04:36:19;99016.19;;;8.94;100.00
60437;BME280;46289;51.992;4.498;2024-03-29T04:38:21;99017.41;;;8.88;100.00
60437;BME280;46289;51.992;4.498;2024-03-29T04:40:22;99001.88;;;8.85;100.00
60437;BME280;46289;51.992;4.498;2024-03-29T04:42:23;99018.63;;;8.83;100.00
60437;BME280;46289;51.992;4.498;2024-03-29T04:44:25;99011.69;;;8.82;100.00
60437;BME280;46289;51.992;4.498;2024-03-29T04:46:26;99015.47;;;8.77;100.00
60437;BME280;46289;51.992;4.498;2024-03-29T04:48:30;99034.72;;;8.76;100.00
60437;BME280;46289;51.992;4.498;2024-03-29T04:50:34;99019.59;;;8.67;100.00
60437;BME280;46289;51.992;4.498;2024-03-29T04:52:35;99046.78;;;8.65;100.00
60437;BME280;46289;51.992;4.498;2024-03-29T04:54:36;99037.16;;;8.65;100.00
60437;BME280;46289;51.992;4.498;2024-03-29T04:56:37;99032.13;;;8.62;100.00
60437;BME280;46289;51.992;4.498;2024-03-29T04:58:41;99040.06;;;8.61;100.00
60437;BME280;46289;51.992;4.498;2024-03-29T05:00:43;99029.13;;;8.54;100.00
60437;BME280;46289;51.992;4.498;2024-03-29T05:02:44;99034.38;;;8.54;100.00
60437;BME280;46289;51.992;4.498;2024-03-29T05:04:45;99024.16;;;8.49;100.00
60437;BME280;46289;51.992;4.498;2024-03-29T05:06:48;99036.03;;;8.55;100.00
60437;BME280;46289;51.992;4.498;2024-03-29T05:08:53;99032.13;;;8.48;100.00
60437;BME280;46289;51.992;4.498;2024-03-29T05:10:57;99030.53;;;8.45;100.00
60437;BME280;46289;51.992;4.498;2024-03-29T05:12:58;99027.47;;;8.37;100.00
60437;BME280;46289;51.992;4.498;2024-03-29T05:14:59;99022.25;;;8.37;100.00
60437;BME280;46289;51.992;4.498;2024-03-29T05:17:00;99036.56;;;8.31;100.00
60437;BME280;46289;51.992;4.498;2024-03-29T05:19:02;99041.22;;;8.26;100.00
60437;BME280;46289;51.992;4.498;2024-03-29T05:21:03;99045.81;;;8.23;100.00
60437;BME280;46289;51.992;4.498;2024-03-29T05:23:07;99049.38;;;8.22;100.00
60437;BME280;46289;51.992;4.498;2024-03-29T05:25:09;99041.59;;;8.20;100.00
60437;BME280;46289;51.992;4.498;2024-03-29T05:27:11;99061.94;;;8.15;100.00
60437;BME280;46289;51.992;4.498;2024-03-29T05:29:12;99054.19;;;8.13;100.00
60437;BME280;46289;51.992;4.498;2024-03-29T05:31:14;99063.09;;;8.11;100.00
60437;BME280;46289;51.992;4.498;2024-03-29T05:33:15;99046.72;;;8.07;100.00
60437;BME280;46289;51.992;4.498;2024-03-29T05:35:17;99053.72;;;8.07;100.00
60437;BME280;46289;51.992;4.498;2024-03-29T05:37:18;99059.91;;;8.06;100.00
60437;BME280;46289;51.992;4.498;2024-03-29T05:39:22;99067.75;;;8.06;100.00
60437;BME280;46289;51.992;4.498;2024-03-29T05:41:23;99068.66;;;8.05;100.00
60437;BME280;46289;51.992;4.498;2024-03-29T05:43:24;99063.59;;;8.02;100.00
60437;BME280;46289;51.992;4.498;2024-03-29T05:45:26;99066.41;;;7.99;100.00
60437;BME280;46289;51.992;4.498;2024-03-29T05:47:28;99072.56;;;7.98;100.00
60437;BME280;46289;51.992;4.498;2024-03-29T05:49:29;99071.72;;;7.97;100.00
60437;BME280;46289;51.992;4.498;2024-03-29T05:51:30;99090.38;;;7.91;100.00
60437;BME280;46289;51.992;4.498;2024-03-29T05:53:31;99083.47;;;7.90;100.00
60437;BME280;46289;51.992;4.498;2024-03-29T05:55:35;99096.44;;;7.91;100.00
60437;BME280;46289;51.992;4.498;2024-03-29T05:57:36;99091.97;;;7.94;100.00
60437;BME280;46289;51.992;4.498;2024-03-29T05:59:38;99094.78;;;7.90;100.00
60437;BME280;46289;51.992;4.498;2024-03-29T06:01:39;99089.56;;;7.90;100.00
60437;BME280;46289;51.992;4.498;2024-03-29T06:03:40;99095.69;;;7.89;100.00
60437;BME280;46289;51.992;4.498;2024-03-29T06:05:41;99092.75;;;7.96;100.00
60437;BME280;46289;51.992;4.498;2024-03-29T06:07:42;99094.19;;;7.85;100.00
60437;BME280;46289;51.992;4.498;2024-03-29T06:09:43;99104.47;;;7.88;100.00
60437;BME280;46289;51.992;4.498;2024-03-29T06:11:47;99099.25;;;7.88;100.00
60437;BME280;46289;51.992;4.498;2024-03-29T06:13:48;99108.03;;;7.87;100.00
60437;BME280;46289;51.992;4.498;2024-03-29T06:16:04;99107.34;;;7.84;100.00
60437;BME280;46289;51.992;4.498;2024-03-29T06:18:21;99121.69;;;7.93;100.00
60437;BME280;46289;51.992;4.498;2024-03-29T06:20:22;99130.28;;;7.95;100.00
60437;BME280;46289;51.992;4.498;2024-03-29T06:22:23;99134.66;;;7.94;100.00
60437;BME280;46289;51.992;4.498;2024-03-29T06:24:25;99132.31;;;7.89;100.00
60437;BME280;46289;51.992;4.498;2024-03-29T06:26:26;99131.88;;;7.97;100.00
60437;BME280;46289;51.992;4.498;2024-03-29T06:28:29;99128.78;;;7.90;100.00
60437;BME280;46289;51.992;4.498;2024-03-29T06:30:31;99123.38;;;7.94;100.00
60437;BME280;46289;51.992;4.498;2024-03-29T06:32:32;99123.56;;;7.90;100.00
60437;BME280;46289;51.992;4.498;2024-03-29T06:34:33;99118.13;;;7.94;100.00
60437;BME280;46289;51.992;4.498;2024-03-29T06:36:34;99126.75;;;7.96;100.00
60437;BME280;46289;51.992;4.498;2024-03-29T06:38:35;99110.88;;;7.99;100.00
60437;BME280;46289;51.992;4.498;2024-03-29T06:40:37;99109.34;;;7.95;100.00
60437;BME280;46289;51.992;4.498;2024-03-29T06:42:38;99112.38;;;8.03;100.00
60437;BME280;46289;51.992;4.498;2024-03-29T06:44:42;99116.69;;;8.04;100.00
60437;BME280;46289;51.992;4.498;2024-03-29T06:46:43;99109.94;;;8.00;100.00
60437;BME280;46289;51.992;4.498;2024-03-29T06:48:45;99111.53;;;8.02;100.00
60437;BME280;46289;51.992;4.498;2024-03-29T06:50:46;99115.75;;;8.05;100.00
60437;BME280;46289;51.992;4.498;2024-03-29T06:52:47;99125.94;;;8.09;100.00
60437;BME280;46289;51.992;4.498;2024-03-29T06:54:48;99115.22;;;8.14;100.00
60437;BME280;46289;51.992;4.498;2024-03-29T06:56:49;99116.91;;;8.15;100.00
60437;BME280;46289;51.992;4.498;2024-03-29T06:58:50;99123.28;;;8.25;100.00
60437;BME280;46289;51.992;4.498;2024-03-29T07:00:54;99119.00;;;8.39;100.00
60437;BME280;46289;51.992;4.498;2024-03-29T07:02:55;99118.50;;;8.32;100.00
60437;BME280;46289;51.992;4.498;2024-03-29T07:04:56;99106.88;;;8.38;100.00
60437;BME280;46289;51.992;4.498;2024-03-29T07:06:58;99123.91;;;8.45;100.00
60437;BME280;46289;51.992;4.498;2024-03-29T07:09:00;99122.50;;;8.39;100.00
60437;BME280;46289;51.992;4.498;2024-03-29T07:11:01;99114.66;;;8.39;100.00
60437;BME280;46289;51.992;4.498;2024-03-29T07:13:02;99122.88;;;8.47;100.00
60437;BME280;46289;51.992;4.498;2024-03-29T07:15:04;99122.16;;;8.60;100.00
60437;BME280;46289;51.992;4.498;2024-03-29T07:17:08;99116.00;;;8.75;100.00
60437;BME280;46289;51.992;4.498;2024-03-29T07:19:10;99133.69;;;8.86;100.00
60437;BME280;46289;51.992;4.498;2024-03-29T07:21:11;99132.19;;;8.67;100.00
60437;BME280;46289;51.992;4.498;2024-03-29T07:23:12;99143.59;;;8.66;100.00
60437;BME280;46289;51.992;4.498;2024-03-29T07:25:14;99150.59;;;8.66;100.00
60437;BME280;46289;51.992;4.498;2024-03-29T07:27:15;99146.94;;;8.54;100.00
60437;BME280;46289;51.992;4.498;2024-03-29T07:29:16;99144.00;;;8.44;100.00
60437;BME280;46289;51.992;4.498;2024-03-29T07:31:17;99136.84;;;8.62;100.00
60437;BME280;46289;51.992;4.498;2024-03-29T07:33:22;99145.47;;;8.93;100.00
60437;BME280;46289;51.992;4.498;2024-03-29T07:35:24;99134.72;;;9.12;100.00
60437;BME280;46289;51.992;4.498;2024-03-29T07:37:25;99155.41;;;9.16;100.00
60437;BME280;46289;51.992;4.498;2024-03-29T07:39:26;99155.44;;;9.43;100.00
60437;BME280;46289;51.992;4.498;2024-03-29T07:41:27;99162.38;;;9.44;100.00
60437;BME280;46289;51.992;4.498;2024-03-29T07:43:37;99162.16;;;9.89;100.00
60437;BME280;46289;51.992;4.498;2024-03-29T07:45:39;99154.88;;;10.07;100.00
60437;BME280;46289;51.992;4.498;2024-03-29T07:47:41;99157.91;;;10.28;100.00
60437;BME280;46289;51.992;4.498;2024-03-29T07:49:45;99150.94;;;10.14;100.00
60437;BME280;46289;51.992;4.498;2024-03-29T07:51:46;99143.84;;;10.02;100.00
60437;BME280;46289;51.992;4.498;2024-03-29T07:53:47;99135.38;;;10.11;100.00
60437;BME280;46289;51.992;4.498;2024-03-29T07:55:49;99150.09;;;9.86;100.00
60437;BME280;46289;51.992;4.498;2024-03-29T07:57:50;99158.47;;;10.33;100.00
60437;BME280;46289;51.992;4.498;2024-03-29T07:59:51;99145.56;;;10.55;100.00
60437;BME280;46289;51.992;4.498;2024-03-29T08:01:53;99148.22;;;10.81;100.00
60437;BME280;46289;51.992;4.498;2024-03-29T08:03:54;99151.56;;;10.83;100.00
60437;BME280;46289;51.992;4.498;2024-03-29T08:06:01;99154.72;;;11.14;100.00
60437;BME280;46289;51.992;4.498;2024-03-29T08:08:04;99164.06;;;11.18;100.00
60437;BME280;46289;51.992;4.498;2024-03-29T08:10:06;99172.97;;;10.39;100.00
60437;BME280;46289;51.992;4.498;2024-03-29T08:12:07;99174.88;;;10.22;100.00
60437;BME280;46289;51.992;4.498;2024-03-29T08:14:11;99153.41;;;10.30;100.00
60437;BME280;46289;51.992;4.498;2024-03-29T08:16:12;99139.97;;;10.47;100.00
60437;BME280;46289;51.992;4.498;2024-03-29T08:18:13;99135.69;;;10.46;100.00
60437;BME280;46289;51.992;4.498;2024-03-29T08:20:15;99150.84;;;10.81;100.00
60437;BME280;46289;51.992;4.498;2024-03-29T08:22:19;99157.47;;;9.94;100.00
60437;BME280;46289;51.992;4.498;2024-03-29T08:24:20;99157.41;;;10.36;100.00
60437;BME280;46289;51.992;4.498;2024-03-29T08:26:21;99159.75;;;10.53;100.00
60437;BME280;46289;51.992;4.498;2024-03-29T08:28:22;99163.44;;;11.02;100.00
60437;BME280;46289;51.992;4.498;2024-03-29T08:30:23;99175.59;;;11.54;100.00
60437;BME280;46289;51.992;4.498;2024-03-29T08:32:24;99173.13;;;10.88;100.00
60437;BME280;46289;51.992;4.498;2024-03-29T08:34:25;99171.72;;;10.57;100.00
60437;BME280;46289;51.992;4.498;2024-03-29T08:36:26;99170.88;;;10.17;100.00
60437;BME280;46289;51.992;4.498;2024-03-29T08:38:30;99178.84;;;10.29;100.00
60437;BME280;46289;51.992;4.498;2024-03-29T08:40:31;99186.72;;;10.42;100.00
60437;BME280;46289;51.992;4.498;2024-03-29T08:42:32;99188.09;;;10.21;100.00
60437;BME280;46289;51.992;4.498;2024-03-29T08:44:34;99184.31;;;10.52;100.00
60437;BME280;46289;51.992;4.498;2024-03-29T08:46:35;99177.47;;;10.37;100.00
60437;BME280;46289;51.992;4.498;2024-03-29T08:48:36;99180.59;;;10.29;100.00
60437;BME280;46289;51.992;4.498;2024-03-29T08:50:38;99178.84;;;10.42;100.00
60437;BME280;46289;51.992;4.498;2024-03-29T08:52:39;99191.75;;;10.32;100.00
60437;BME280;46289;51.992;4.498;2024-03-29T08:54:43;99191.97;;;10.42;100.00
60437;BME280;46289;51.992;4.498;2024-03-29T08:56:44;99191.16;;;10.54;100.00
60437;BME280;46289;51.992;4.498;2024-03-29T08:58:45;99200.00;;;10.79;100.00
60437;BME280;46289;51.992;4.498;2024-03-29T09:00:53;99198.53;;;10.62;100.00
60437;BME280;46289;51.992;4.498;2024-03-29T09:02:54;99188.06;;;11.01;100.00
60437;BME280;46289;51.992;4.498;2024-03-29T09:04:56;99184.91;;;10.83;100.00
60437;BME280;46289;51.992;4.498;2024-03-29T09:06:57;99186.16;;;10.77;100.00
60437;BME280;46289;51.992;4.498;2024-03-29T09:08:58;99184.78;;;10.84;100.00
60437;BME280;46289;51.992;4.498;2024-03-29T09:11:02;99197.63;;;10.89;100.00
60437;BME280;46289;51.992;4.498;2024-03-29T09:13:03;99194.16;;;10.88;100.00
60437;BME280;46289;51.992;4.498;2024-03-29T09:15:05;99191.72;;;10.85;100.00
60437;BME280;46289;51.992;4.498;2024-03-29T09:17:08;99207.38;;;10.99;100.00
60437;BME280;46289;51.992;4.498;2024-03-29T09:19:11;99208.53;;;11.21;100.00
60437;BME280;46289;51.992;4.498;2024-03-29T09:21:13;99212.03;;;11.09;100.00
60437;BME280;46289;51.992;4.498;2024-03-29T09:23:14;99208.53;;;11.34;100.00
60437;BME280;46289;51.992;4.498;2024-03-29T09:25:15;99210.53;;;11.56;100.00
60437;BME280;46289;51.992;4.498;2024-03-29T09:27:18;99212.97;;;11.33;100.00
60437;BME280;46289;51.992;4.498;2024-03-29T09:29:20;99217.81;;;11.01;100.00
60437;BME280;46289;51.992;4.498;2024-03-29T09:31:21;99216.03;;;11.02;100.00
60437;BME280;46289;51.992;4.498;2024-03-29T09:33:22;99228.31;;;11.27;100.00
60437;BME280;46289;51.992;4.498;2024-03-29T09:35:23;99222.34;;;11.37;100.00
60437;BME280;46289;51.992;4.498;2024-03-29T09:37:24;99232.03;;;11.74;100.00
60437;BME280;46289;51.992;4.498;2024-03-29T09:39:25;99229.31;;;11.62;100.00
60437;BME280;46289;51.992;4.498;2024-03-29T09:41:27;99236.13;;;11.78;100.00
60437;BME280;46289;51.992;4.498;2024-03-29T09:43:32;99238.88;;;11.76;100.00
60437;BME280;46289;51.992;4.498;2024-03-29T09:45:34;99241.28;;;11.79;100.00
60437;BME280;46289;51.992;4.498;2024-03-29T09:47:36;99249.06;;;11.81;100.00
60437;BME280;46289;51.992;4.498;2024-03-29T09:49:38;99240.91;;;11.60;100.00
60437;BME280;46289;51.992;4.498;2024-03-29T09:51:43;99237.84;;;11.66;100.00
60437;BME280;46289;51.992;4.498;2024-03-29T09:53:45;99237.19;;;11.75;100.00
60437;BME280;46289;51.992;4.498;2024-03-29T09:55:47;99226.41;;;11.41;100.00
60437;BME280;46289;51.992;4.498;2024-03-29T09:57:48;99227.06;;;11.07;100.00
60437;BME280;46289;51.992;4.498;2024-03-29T09:59:52;99234.28;;;11.03;100.00
60437;BME280;46289;51.992;4.498;2024-03-29T10:01:55;99242.69;;;10.30;100.00
60437;BME280;46289;51.992;4.498;2024-03-29T10:03:56;99242.25;;;10.76;100.00
60437;BME280;46289;51.992;4.498;2024-03-29T10:06:00;99236.19;;;10.88;100.00
60437;BME280;46289;51.992;4.498;2024-03-29T10:08:04;99226.63;;;11.00;100.00
60437;BME280;46289;51.992;4.498;2024-03-29T10:10:06;99225.88;;;11.11;100.00
60437;BME280;46289;51.992;4.498;2024-03-29T10:12:07;99229.88;;;11.29;100.00
60437;BME280;46289;51.992;4.498;2024-03-29T10:14:08;99235.03;;;11.18;100.00
60437;BME280;46289;51.992;4.498;2024-03-29T10:16:12;99236.41;;;11.11;100.00
60437;BME280;46289;51.992;4.498;2024-03-29T10:18:13;99240.63;;;11.01;100.00
60437;BME280;46289;51.992;4.498;2024-03-29T10:20:16;99238.16;;;11.74;100.00
60437;BME280;46289;51.992;4.498;2024-03-29T10:22:17;99240.41;;;11.29;100.00
60437;BME280;46289;51.992;4.498;2024-03-29T10:24:19;99242.72;;;11.08;100.00
60437;BME280;46289;51.992;4.498;2024-03-29T10:26:20;99249.00;;;10.80;100.00
60437;BME280;46289;51.992;4.498;2024-03-29T10:28:23;99248.41;;;11.15;100.00
60437;BME280;46289;51.992;4.498;2024-03-29T10:30:25;99251.22;;;11.50;100.00
60437;BME280;46289;51.992;4.498;2024-03-29T10:32:29;99244.97;;;11.77;100.00
60437;BME280;46289;51.992;4.498;2024-03-29T10:34:30;99241.09;;;12.19;100.00
60437;BME280;46289;51.992;4.498;2024-03-29T10:36:32;99245.69;;;12.99;100.00
60437;BME280;46289;51.992;4.498;2024-03-29T10:38:34;99241.22;;;12.53;100.00
60437;BME280;46289;51.992;4.498;2024-03-29T10:40:37;99244.56;;;12.79;100.00
60437;BME280;46289;51.992;4.498;2024-03-29T10:42:39;99238.38;;;12.56;100.00
60437;BME280;46289;51.992;4.498;2024-03-29T10:44:42;99239.72;;;13.08;100.00